Terminal Aerodrome Forecast
Issued by NWS Chicago, IL

Home | Current Version | Previous Version | Graphics & Text | Print | Product List | Glossary On
Versions: 1 2 3 4 5 6 7 8 9 10 11 12 13 14 15 16 17 18 19 20 21 22 23 24 25 26 27 28 29 30 31 32 33
000
FTUS43 KLOT 251300 AAA
TAFRFD
TAF AMD
KRFD 251402Z 2514/2612 19006KT P6SM SCT070 OVC120
     FM251600 19011G16KT P6SM SCT060 BKN100
     FM260100 19010KT P6SM VCSH OVC080 PROB30 2603/2606 4SM TSRA
      OVC040CB
     FM260700 22007KT 6SM BR BKN040=

USA.gov is the U.S. government's official web portal to all federal, state and local government web resources and services.